sensor_id;sensor_type;location;lat;lon;timestamp;P1;durP1;ratioP1;P2;durP2;ratioP2
26906;SDS011;14472;56.880;16.658;2024-03-25T00:01:57;22.83;;;10.77;;
26906;SDS011;14472;56.880;16.658;2024-03-25T00:04:23;23.10;;;12.00;;
26906;SDS011;14472;56.880;16.658;2024-03-25T00:06:51;26.67;;;10.83;;
26906;SDS011;14472;56.880;16.658;2024-03-25T00:09:18;24.00;;;12.63;;
26906;SDS011;14472;56.880;16.658;2024-03-25T00:11:44;21.43;;;10.80;;
26906;SDS011;14472;56.880;16.658;2024-03-25T00:14:09;21.97;;;10.63;;
26906;SDS011;14472;56.880;16.658;2024-03-25T00:16:35;24.67;;;10.63;;
26906;SDS011;14472;56.880;16.658;2024-03-25T00:19:02;21.00;;;10.80;;
26906;SDS011;14472;56.880;16.658;2024-03-25T00:21:28;19.80;;;12.03;;
26906;SDS011;14472;56.880;16.658;2024-03-25T00:23:53;21.70;;;12.43;;
26906;SDS011;14472;56.880;16.658;2024-03-25T00:26:22;23.87;;;10.80;;
26906;SDS011;14472;56.880;16.658;2024-03-25T00:28:48;22.60;;;10.17;;
26906;SDS011;14472;56.880;16.658;2024-03-25T00:31:14;21.57;;;10.37;;
26906;SDS011;14472;56.880;16.658;2024-03-25T00:33:40;21.90;;;11.87;;
26906;SDS011;14472;56.880;16.658;2024-03-25T00:36:05;22.17;;;10.30;;
26906;SDS011;14472;56.880;16.658;2024-03-25T00:38:32;18.30;;;10.20;;
26906;SDS011;14472;56.880;16.658;2024-03-25T00:40:58;21.63;;;11.33;;
26906;SDS011;14472;56.880;16.658;2024-03-25T00:43:24;24.37;;;11.43;;
26906;SDS011;14472;56.880;16.658;2024-03-25T00:45:49;21.07;;;11.63;;
26906;SDS011;14472;56.880;16.658;2024-03-25T00:48:15;21.17;;;10.50;;
26906;SDS011;14472;56.880;16.658;2024-03-25T00:50:41;25.27;;;11.97;;
26906;SDS011;14472;56.880;16.658;2024-03-25T00:53:06;22.43;;;9.50;;
26906;SDS011;14472;56.880;16.658;2024-03-25T00:55:33;20.63;;;11.50;;
26906;SDS011;14472;56.880;16.658;2024-03-25T00:58:01;23.50;;;11.40;;
26906;SDS011;14472;56.880;16.658;2024-03-25T01:00:27;21.43;;;11.13;;
26906;SDS011;14472;56.880;16.658;2024-03-25T01:02:53;21.77;;;11.50;;
26906;SDS011;14472;56.880;16.658;2024-03-25T01:05:18;23.43;;;11.47;;
26906;SDS011;14472;56.880;16.658;2024-03-25T01:07:44;25.97;;;13.53;;
26906;SDS011;14472;56.880;16.658;2024-03-25T01:10:10;18.80;;;9.63;;
26906;SDS011;14472;56.880;16.658;2024-03-25T01:12:35;25.17;;;10.63;;
26906;SDS011;14472;56.880;16.658;2024-03-25T01:15:01;19.20;;;11.20;;
26906;SDS011;14472;56.880;16.658;2024-03-25T01:17:28;27.50;;;13.27;;
26906;SDS011;14472;56.880;16.658;2024-03-25T01:19:54;25.27;;;12.37;;
26906;SDS011;14472;56.880;16.658;2024-03-25T01:22:19;21.60;;;11.20;;
26906;SDS011;14472;56.880;16.658;2024-03-25T01:24:45;28.77;;;12.63;;
26906;SDS011;14472;56.880;16.658;2024-03-25T01:27:10;22.23;;;11.53;;
26906;SDS011;14472;56.880;16.658;2024-03-25T01:29:36;27.93;;;12.93;;
26906;SDS011;14472;56.880;16.658;2024-03-25T01:32:02;23.87;;;11.43;;
26906;SDS011;14472;56.880;16.658;2024-03-25T01:34:29;24.50;;;11.40;;
26906;SDS011;14472;56.880;16.658;2024-03-25T01:36:55;19.70;;;10.57;;
26906;SDS011;14472;56.880;16.658;2024-03-25T01:39:20;27.43;;;14.10;;
26906;SDS011;14472;56.880;16.658;2024-03-25T01:41:46;25.17;;;13.07;;
26906;SDS011;14472;56.880;16.658;2024-03-25T01:44:12;26.53;;;12.33;;
26906;SDS011;14472;56.880;16.658;2024-03-25T01:46:38;23.27;;;11.37;;
26906;SDS011;14472;56.880;16.658;2024-03-25T01:49:04;29.93;;;11.77;;
26906;SDS011;14472;56.880;16.658;2024-03-25T01:51:30;26.37;;;12.93;;
26906;SDS011;14472;56.880;16.658;2024-03-25T01:53:57;25.70;;;12.47;;
26906;SDS011;14472;56.880;16.658;2024-03-25T01:56:24;27.60;;;12.50;;
26906;SDS011;14472;56.880;16.658;2024-03-25T01:58:51;28.10;;;13.00;;
26906;SDS011;14472;56.880;16.658;2024-03-25T02:01:17;24.50;;;11.80;;
26906;SDS011;14472;56.880;16.658;2024-03-25T02:03:44;26.83;;;12.17;;
26906;SDS011;14472;56.880;16.658;2024-03-25T02:06:12;21.00;;;11.03;;
26906;SDS011;14472;56.880;16.658;2024-03-25T02:08:41;23.73;;;11.10;;
26906;SDS011;14472;56.880;16.658;2024-03-25T02:11:08;21.23;;;11.10;;
26906;SDS011;14472;56.880;16.658;2024-03-25T02:13:35;21.83;;;11.00;;
26906;SDS011;14472;56.880;16.658;2024-03-25T02:16:02;23.07;;;12.60;;
26906;SDS011;14472;56.880;16.658;2024-03-25T02:18:29;22.43;;;11.03;;
26906;SDS011;14472;56.880;16.658;2024-03-25T02:20:56;21.90;;;10.93;;
26906;SDS011;14472;56.880;16.658;2024-03-25T02:23:22;22.47;;;11.43;;
26906;SDS011;14472;56.880;16.658;2024-03-25T02:25:51;24.43;;;12.63;;
26906;SDS011;14472;56.880;16.658;2024-03-25T02:28:18;25.10;;;12.20;;
26906;SDS011;14472;56.880;16.658;2024-03-25T02:30:44;18.97;;;9.90;;
26906;SDS011;14472;56.880;16.658;2024-03-25T02:33:10;21.80;;;11.37;;
26906;SDS011;14472;56.880;16.658;2024-03-25T02:35:36;19.53;;;11.17;;
26906;SDS011;14472;56.880;16.658;2024-03-25T02:38:04;25.27;;;12.77;;
26906;SDS011;14472;56.880;16.658;2024-03-25T02:40:31;18.93;;;10.57;;
26906;SDS011;14472;56.880;16.658;2024-03-25T02:42:57;26.57;;;11.83;;
26906;SDS011;14472;56.880;16.658;2024-03-25T02:45:23;23.80;;;10.97;;
26906;SDS011;14472;56.880;16.658;2024-03-25T02:47:50;24.40;;;12.03;;
26906;SDS011;14472;56.880;16.658;2024-03-25T02:50:16;26.27;;;13.83;;
26906;SDS011;14472;56.880;16.658;2024-03-25T02:52:42;20.30;;;11.80;;
26906;SDS011;14472;56.880;16.658;2024-03-25T02:55:07;20.07;;;10.83;;
26906;SDS011;14472;56.880;16.658;2024-03-25T02:57:33;21.63;;;11.37;;
26906;SDS011;14472;56.880;16.658;2024-03-25T02:59:59;23.97;;;13.93;;
26906;SDS011;14472;56.880;16.658;2024-03-25T03:02:25;25.50;;;11.73;;
26906;SDS011;14472;56.880;16.658;2024-03-25T03:04:50;23.77;;;12.77;;
26906;SDS011;14472;56.880;16.658;2024-03-25T03:07:16;27.93;;;13.13;;
26906;SDS011;14472;56.880;16.658;2024-03-25T03:09:42;21.97;;;11.13;;
26906;SDS011;14472;56.880;16.658;2024-03-25T03:12:08;20.73;;;11.90;;
26906;SDS011;14472;56.880;16.658;2024-03-25T03:14:33;24.57;;;11.53;;
26906;SDS011;14472;56.880;16.658;2024-03-25T03:16:59;25.20;;;11.73;;
26906;SDS011;14472;56.880;16.658;2024-03-25T03:19:29;22.17;;;11.40;;
26906;SDS011;14472;56.880;16.658;2024-03-25T03:21:55;22.43;;;12.57;;
26906;SDS011;14472;56.880;16.658;2024-03-25T03:24:21;30.47;;;13.73;;
26906;SDS011;14472;56.880;16.658;2024-03-25T03:26:47;23.90;;;11.87;;
26906;SDS011;14472;56.880;16.658;2024-03-25T03:29:13;28.47;;;13.93;;
26906;SDS011;14472;56.880;16.658;2024-03-25T03:31:39;19.97;;;9.70;;
26906;SDS011;14472;56.880;16.658;2024-03-25T03:34:05;27.07;;;12.77;;
26906;SDS011;14472;56.880;16.658;2024-03-25T03:36:31;25.03;;;11.63;;
26906;SDS011;14472;56.880;16.658;2024-03-25T03:38:57;23.93;;;11.20;;
26906;SDS011;14472;56.880;16.658;2024-03-25T03:41:22;24.50;;;10.30;;
26906;SDS011;14472;56.880;16.658;2024-03-25T03:43:48;21.27;;;11.03;;
26906;SDS011;14472;56.880;16.658;2024-03-25T03:46:14;26.33;;;12.63;;
26906;SDS011;14472;56.880;16.658;2024-03-25T03:48:39;19.43;;;9.73;;
26906;SDS011;14472;56.880;16.658;2024-03-25T03:51:05;27.90;;;12.07;;
26906;SDS011;14472;56.880;16.658;2024-03-25T03:53:32;25.57;;;11.17;;
26906;SDS011;14472;56.880;16.658;2024-03-25T03:55:59;22.67;;;11.43;;
26906;SDS011;14472;56.880;16.658;2024-03-25T03:58:27;28.10;;;12.47;;
26906;SDS011;14472;56.880;16.658;2024-03-25T04:00:53;23.80;;;11.60;;
26906;SDS011;14472;56.880;16.658;2024-03-25T04:03:19;23.17;;;11.80;;
26906;SDS011;14472;56.880;16.658;2024-03-25T04:05:45;23.30;;;11.53;;
26906;SDS011;14472;56.880;16.658;2024-03-25T04:08:11;25.40;;;12.73;;
26906;SDS011;14472;56.880;16.658;2024-03-25T04:10:37;23.30;;;11.80;;
26906;SDS011;14472;56.880;16.658;2024-03-25T04:13:03;21.33;;;10.77;;
26906;SDS011;14472;56.880;16.658;2024-03-25T04:15:32;25.30;;;11.30;;
26906;SDS011;14472;56.880;16.658;2024-03-25T04:17:59;20.50;;;9.73;;
26906;SDS011;14472;56.880;16.658;2024-03-25T04:20:26;31.20;;;13.87;;
26906;SDS011;14472;56.880;16.658;2024-03-25T04:22:53;18.77;;;9.53;;
26906;SDS011;14472;56.880;16.658;2024-03-25T04:25:20;27.53;;;11.73;;
26906;SDS011;14472;56.880;16.658;2024-03-25T04:27:46;24.20;;;11.10;;
26906;SDS011;14472;56.880;16.658;2024-03-25T04:30:12;29.23;;;13.13;;
26906;SDS011;14472;56.880;16.658;2024-03-25T04:32:38;25.33;;;9.97;;
26906;SDS011;14472;56.880;16.658;2024-03-25T04:35:07;21.80;;;10.87;;
26906;SDS011;14472;56.880;16.658;2024-03-25T04:37:33;25.07;;;10.97;;
26906;SDS011;14472;56.880;16.658;2024-03-25T04:40:00;23.70;;;11.20;;
26906;SDS011;14472;56.880;16.658;2024-03-25T04:42:26;26.33;;;12.33;;
26906;SDS011;14472;56.880;16.658;2024-03-25T04:44:51;23.70;;;10.60;;
26906;SDS011;14472;56.880;16.658;2024-03-25T04:47:17;23.20;;;11.37;;
26906;SDS011;14472;56.880;16.658;2024-03-25T04:49:43;24.77;;;11.67;;
26906;SDS011;14472;56.880;16.658;2024-03-25T04:52:10;24.33;;;12.10;;
26906;SDS011;14472;56.880;16.658;2024-03-25T04:54:40;23.03;;;12.10;;
26906;SDS011;14472;56.880;16.658;2024-03-25T04:57:06;26.10;;;12.93;;
26906;SDS011;14472;56.880;16.658;2024-03-25T04:59:32;25.13;;;11.20;;
26906;SDS011;14472;56.880;16.658;2024-03-25T05:01:58;24.50;;;11.10;;
26906;SDS011;14472;56.880;16.658;2024-03-25T05:04:24;29.67;;;14.33;;
26906;SDS011;14472;56.880;16.658;2024-03-25T05:06:50;26.87;;;12.37;;
26906;SDS011;14472;56.880;16.658;2024-03-25T05:09:16;26.27;;;11.63;;
26906;SDS011;14472;56.880;16.658;2024-03-25T05:11:42;23.63;;;11.50;;
26906;SDS011;14472;56.880;16.658;2024-03-25T05:14:08;29.03;;;13.27;;
26906;SDS011;14472;56.880;16.658;2024-03-25T05:16:33;21.87;;;9.50;;
26906;SDS011;14472;56.880;16.658;2024-03-25T05:18:59;28.83;;;12.07;;
26906;SDS011;14472;56.880;16.658;2024-03-25T05:21:25;29.00;;;13.17;;
26906;SDS011;14472;56.880;16.658;2024-03-25T05:23:50;28.50;;;12.00;;
26906;SDS011;14472;56.880;16.658;2024-03-25T05:26:16;28.60;;;13.40;;
26906;SDS011;14472;56.880;16.658;2024-03-25T05:28:42;31.77;;;12.63;;
26906;SDS011;14472;56.880;16.658;2024-03-25T05:31:10;36.57;;;14.53;;
26906;SDS011;14472;56.880;16.658;2024-03-25T05:33:36;32.03;;;13.60;;
26906;SDS011;14472;56.880;16.658;2024-03-25T05:36:02;31.67;;;13.60;;
26906;SDS011;14472;56.880;16.658;2024-03-25T05:38:28;42.60;;;16.40;;
26906;SDS011;14472;56.880;16.658;2024-03-25T05:40:54;34.33;;;13.87;;
26906;SDS011;14472;56.880;16.658;2024-03-25T05:43:21;34.90;;;14.47;;
26906;SDS011;14472;56.880;16.658;2024-03-25T05:45:53;35.07;;;14.03;;
26906;SDS011;14472;56.880;16.658;2024-03-25T05:48:20;44.23;;;16.00;;
26906;SDS011;14472;56.880;16.658;2024-03-25T05:50:46;34.67;;;14.73;;
26906;SDS011;14472;56.880;16.658;2024-03-25T05:53:21;28.33;;;12.57;;
26906;SDS011;14472;56.880;16.658;2024-03-25T05:55:47;27.87;;;12.50;;
26906;SDS011;14472;56.880;16.658;2024-03-25T05:58:13;35.37;;;14.70;;
26906;SDS011;14472;56.880;16.658;2024-03-25T06:00:38;35.57;;;16.50;;
26906;SDS011;14472;56.880;16.658;2024-03-25T06:03:04;36.93;;;13.67;;
26906;SDS011;14472;56.880;16.658;2024-03-25T06:05:30;31.53;;;11.87;;
26906;SDS011;14472;56.880;16.658;2024-03-25T06:07:56;38.93;;;14.50;;
26906;SDS011;14472;56.880;16.658;2024-03-25T06:10:21;37.10;;;14.37;;
26906;SDS011;14472;56.880;16.658;2024-03-25T06:12:47;43.30;;;16.07;;
26906;SDS011;14472;56.880;16.658;2024-03-25T06:15:13;31.73;;;13.10;;
26906;SDS011;14472;56.880;16.658;2024-03-25T06:17:38;28.70;;;12.50;;
26906;SDS011;14472;56.880;16.658;2024-03-25T06:20:04;29.60;;;13.17;;
26906;SDS011;14472;56.880;16.658;2024-03-25T06:22:30;29.87;;;14.07;;
26906;SDS011;14472;56.880;16.658;2024-03-25T06:24:56;24.37;;;12.00;;
26906;SDS011;14472;56.880;16.658;2024-03-25T06:27:22;22.70;;;11.23;;
26906;SDS011;14472;56.880;16.658;2024-03-25T06:29:47;29.80;;;12.73;;
26906;SDS011;14472;56.880;16.658;2024-03-25T06:32:13;25.53;;;12.80;;
26906;SDS011;14472;56.880;16.658;2024-03-25T06:34:57;28.73;;;13.57;;
26906;SDS011;14472;56.880;16.658;2024-03-25T06:37:26;27.27;;;13.20;;
26906;SDS011;14472;56.880;16.658;2024-03-25T06:39:52;27.53;;;12.50;;
26906;SDS011;14472;56.880;16.658;2024-03-25T06:42:18;30.13;;;13.63;;
26906;SDS011;14472;56.880;16.658;2024-03-25T06:44:44;28.90;;;13.13;;
26906;SDS011;14472;56.880;16.658;2024-03-25T06:47:14;30.37;;;14.37;;
26906;SDS011;14472;56.880;16.658;2024-03-25T06:49:40;26.60;;;12.20;;
26906;SDS011;14472;56.880;16.658;2024-03-25T06:52:06;23.57;;;11.33;;
26906;SDS011;14472;56.880;16.658;2024-03-25T06:54:31;24.20;;;11.40;;
26906;SDS011;14472;56.880;16.658;2024-03-25T06:56:57;31.03;;;13.30;;
26906;SDS011;14472;56.880;16.658;2024-03-25T06:59:23;27.30;;;13.00;;
26906;SDS011;14472;56.880;16.658;2024-03-25T07:01:48;26.97;;;12.10;;
26906;SDS011;14472;56.880;16.658;2024-03-25T07:04:14;27.73;;;12.47;;
26906;SDS011;14472;56.880;16.658;2024-03-25T07:06:40;28.57;;;13.80;;
26906;SDS011;14472;56.880;16.658;2024-03-25T07:09:05;32.50;;;13.60;;
26906;SDS011;14472;56.880;16.658;2024-03-25T07:11:31;31.17;;;13.03;;
26906;SDS011;14472;56.880;16.658;2024-03-25T07:13:57;34.43;;;13.13;;
26906;SDS011;14472;56.880;16.658;2024-03-25T07:16:23;34.90;;;13.17;;
26906;SDS011;14472;56.880;16.658;2024-03-25T07:18:48;38.13;;;14.00;;
26906;SDS011;14472;56.880;16.658;2024-03-25T07:21:14;29.20;;;13.23;;
26906;SDS011;14472;56.880;16.658;2024-03-25T07:23:40;34.43;;;13.63;;
26906;SDS011;14472;56.880;16.658;2024-03-25T07:26:05;33.70;;;14.07;;
26906;SDS011;14472;56.880;16.658;2024-03-25T07:28:31;41.43;;;15.17;;
26906;SDS011;14472;56.880;16.658;2024-03-25T07:30:57;40.50;;;15.63;;
26906;SDS011;14472;56.880;16.658;2024-03-25T07:33:23;38.63;;;13.80;;
26906;SDS011;14472;56.880;16.658;2024-03-25T07:35:51;37.23;;;14.63;;
26906;SDS011;14472;56.880;16.658;2024-03-25T07:38:16;40.27;;;14.77;;
26906;SDS011;14472;56.880;16.658;2024-03-25T07:40:42;46.57;;;16.67;;
26906;SDS011;14472;56.880;16.658;2024-03-25T07:43:08;43.17;;;14.80;;
26906;SDS011;14472;56.880;16.658;2024-03-25T07:45:34;44.13;;;16.27;;
26906;SDS011;14472;56.880;16.658;2024-03-25T07:48:00;39.60;;;15.20;;
26906;SDS011;14472;56.880;16.658;2024-03-25T07:50:25;39.13;;;14.67;;
26906;SDS011;14472;56.880;16.658;2024-03-25T07:52:51;42.90;;;17.37;;
26906;SDS011;14472;56.880;16.658;2024-03-25T07:55:16;40.10;;;15.37;;
26906;SDS011;14472;56.880;16.658;2024-03-25T07:57:43;41.33;;;15.57;;
26906;SDS011;14472;56.880;16.658;2024-03-25T08:00:09;46.20;;;16.50;;
26906;SDS011;14472;56.880;16.658;2024-03-25T08:02:35;47.23;;;16.60;;
26906;SDS011;14472;56.880;16.658;2024-03-25T08:05:00;58.80;;;18.00;;
26906;SDS011;14472;56.880;16.658;2024-03-25T08:07:26;49.70;;;16.17;;
26906;SDS011;14472;56.880;16.658;2024-03-25T08:09:52;46.47;;;16.97;;
26906;SDS011;14472;56.880;16.658;2024-03-25T08:12:17;52.53;;;15.13;;
26906;SDS011;14472;56.880;16.658;2024-03-25T08:14:43;51.87;;;17.97;;
26906;SDS011;14472;56.880;16.658;2024-03-25T08:17:09;50.97;;;16.33;;
26906;SDS011;14472;56.880;16.658;2024-03-25T08:19:34;43.40;;;14.93;;
26906;SDS011;14472;56.880;16.658;2024-03-25T08:22:00;52.70;;;16.53;;
26906;SDS011;14472;56.880;16.658;2024-03-25T08:24:26;47.30;;;15.43;;
26906;SDS011;14472;56.880;16.658;2024-03-25T08:26:51;49.50;;;16.47;;
26906;SDS011;14472;56.880;16.658;2024-03-25T08:29:17;44.20;;;15.40;;
26906;SDS011;14472;56.880;16.658;2024-03-25T08:31:43;36.97;;;14.43;;
26906;SDS011;14472;56.880;16.658;2024-03-25T08:34:08;36.00;;;14.93;;
26906;SDS011;14472;56.880;16.658;2024-03-25T08:36:34;43.50;;;15.23;;
26906;SDS011;14472;56.880;16.658;2024-03-25T08:39:00;26.97;;;11.33;;
26906;SDS011;14472;56.880;16.658;2024-03-25T08:41:25;32.97;;;13.27;;
26906;SDS011;14472;56.880;16.658;2024-03-25T08:43:51;48.63;;;16.80;;
26906;SDS011;14472;56.880;16.658;2024-03-25T08:46:16;46.17;;;15.23;;
26906;SDS011;14472;56.880;16.658;2024-03-25T08:48:42;50.20;;;16.87;;
26906;SDS011;14472;56.880;16.658;2024-03-25T08:51:08;44.13;;;13.47;;
26906;SDS011;14472;56.880;16.658;2024-03-25T08:53:33;35.83;;;14.17;;
26906;SDS011;14472;56.880;16.658;2024-03-25T08:55:59;33.00;;;12.87;;
26906;SDS011;14472;56.880;16.658;2024-03-25T08:58:25;39.17;;;14.03;;
26906;SDS011;14472;56.880;16.658;2024-03-25T09:00:50;32.80;;;12.90;;
26906;SDS011;14472;56.880;16.658;2024-03-25T09:03:16;33.47;;;12.73;;
26906;SDS011;14472;56.880;16.658;2024-03-25T09:05:42;33.43;;;12.23;;
26906;SDS011;14472;56.880;16.658;2024-03-25T09:08:08;34.30;;;12.40;;
26906;SDS011;14472;56.880;16.658;2024-03-25T09:10:36;43.97;;;15.03;;
26906;SDS011;14472;56.880;16.658;2024-03-25T09:13:21;36.70;;;13.80;;
26906;SDS011;14472;56.880;16.658;2024-03-25T09:15:48;35.60;;;12.33;;
26906;SDS011;14472;56.880;16.658;2024-03-25T09:18:15;35.77;;;13.73;;
26906;SDS011;14472;56.880;16.658;2024-03-25T09:20:40;37.13;;;14.00;;
26906;SDS011;14472;56.880;16.658;2024-03-25T09:23:06;35.00;;;13.43;;
26906;SDS011;14472;56.880;16.658;2024-03-25T09:25:32;29.67;;;11.20;;
26906;SDS011;14472;56.880;16.658;2024-03-25T09:27:58;34.60;;;13.00;;
26906;SDS011;14472;56.880;16.658;2024-03-25T09:30:24;33.40;;;12.63;;
26906;SDS011;14472;56.880;16.658;2024-03-25T09:32:49;36.13;;;14.83;;
26906;SDS011;14472;56.880;16.658;2024-03-25T09:35:15;34.27;;;12.90;;
26906;SDS011;14472;56.880;16.658;2024-03-25T09:37:41;23.07;;;9.80;;
26906;SDS011;14472;56.880;16.658;2024-03-25T09:40:07;35.23;;;11.87;;
26906;SDS011;14472;56.880;16.658;2024-03-25T09:42:47;32.63;;;12.43;;
26906;SDS011;14472;56.880;16.658;2024-03-25T09:45:17;28.37;;;11.17;;
26906;SDS011;14472;56.880;16.658;2024-03-25T09:47:46;25.67;;;10.40;;
26906;SDS011;14472;56.880;16.658;2024-03-25T09:50:13;25.27;;;9.93;;
26906;SDS011;14472;56.880;16.658;2024-03-25T09:52:53;28.17;;;9.57;;
26906;SDS011;14472;56.880;16.658;2024-03-25T09:55:20;36.53;;;11.13;;
26906;SDS011;14472;56.880;16.658;2024-03-25T09:57:46;30.63;;;10.40;;
26906;SDS011;14472;56.880;16.658;2024-03-25T10:00:12;26.87;;;7.47;;
26906;SDS011;14472;56.880;16.658;2024-03-25T10:02:40;14.57;;;5.70;;
26906;SDS011;14472;56.880;16.658;2024-03-25T10:05:07;20.80;;;6.73;;
26906;SDS011;14472;56.880;16.658;2024-03-25T10:07:33;17.97;;;5.93;;
26906;SDS011;14472;56.880;16.658;2024-03-25T10:09:59;17.20;;;4.80;;
26906;SDS011;14472;56.880;16.658;2024-03-25T10:12:31;14.20;;;5.70;;
26906;SDS011;14472;56.880;16.658;2024-03-25T10:14:57;19.60;;;5.90;;
26906;SDS011;14472;56.880;16.658;2024-03-25T10:17:23;14.87;;;4.60;;
26906;SDS011;14472;56.880;16.658;2024-03-25T10:19:49;14.73;;;4.87;;
26906;SDS011;14472;56.880;16.658;2024-03-25T10:22:15;13.13;;;4.30;;
26906;SDS011;14472;56.880;16.658;2024-03-25T10:24:41;15.40;;;5.40;;
26906;SDS011;14472;56.880;16.658;2024-03-25T10:29:56;13.43;;;4.87;;
26906;SDS011;14472;56.880;16.658;2024-03-25T10:32:21;11.03;;;4.80;;
26906;SDS011;14472;56.880;16.658;2024-03-25T10:34:53;14.97;;;4.93;;
26906;SDS011;14472;56.880;16.658;2024-03-25T10:37:19;15.43;;;4.77;;
26906;SDS011;14472;56.880;16.658;2024-03-25T10:39:47;11.27;;;4.67;;
26906;SDS011;14472;56.880;16.658;2024-03-25T10:42:18;13.57;;;5.60;;
26906;SDS011;14472;56.880;16.658;2024-03-25T10:44:45;15.47;;;5.07;;
26906;SDS011;14472;56.880;16.658;2024-03-25T10:47:14;13.17;;;5.33;;
26906;SDS011;14472;56.880;16.658;2024-03-25T10:52:17;19.03;;;5.80;;
26906;SDS011;14472;56.880;16.658;2024-03-25T10:54:48;17.60;;;6.00;;
26906;SDS011;14472;56.880;16.658;2024-03-25T10:57:15;18.30;;;5.83;;
26906;SDS011;14472;56.880;16.658;2024-03-25T10:59:42;19.03;;;6.50;;
26906;SDS011;14472;56.880;16.658;2024-03-25T11:02:09;21.03;;;6.37;;
26906;SDS011;14472;56.880;16.658;2024-03-25T11:04:36;20.13;;;7.30;;
26906;SDS011;14472;56.880;16.658;2024-03-25T11:07:12;21.93;;;6.90;;
26906;SDS011;14472;56.880;16.658;2024-03-25T11:09:39;16.83;;;6.13;;
26906;SDS011;14472;56.880;16.658;2024-03-25T11:12:06;17.93;;;5.17;;
26906;SDS011;14472;56.880;16.658;2024-03-25T11:14:35;17.57;;;5.90;;
26906;SDS011;14472;56.880;16.658;2024-03-25T11:17:01;21.57;;;6.30;;
26906;SDS011;14472;56.880;16.658;2024-03-25T11:19:28;30.43;;;8.83;;
26906;SDS011;14472;56.880;16.658;2024-03-25T11:22:05;26.93;;;8.53;;
26906;SDS011;14472;56.880;16.658;2024-03-25T11:24:35;21.57;;;8.00;;
26906;SDS011;14472;56.880;16.658;2024-03-25T11:27:02;27.97;;;7.47;;
26906;SDS011;14472;56.880;16.658;2024-03-25T11:29:32;23.83;;;8.10;;
26906;SDS011;14472;56.880;16.658;2024-03-25T11:31:59;31.70;;;9.00;;
26906;SDS011;14472;56.880;16.658;2024-03-25T11:34:29;28.53;;;8.40;;
26906;SDS011;14472;56.880;16.658;2024-03-25T11:36:55;26.33;;;6.90;;
26906;SDS011;14472;56.880;16.658;2024-03-25T11:39:22;20.53;;;6.57;;
26906;SDS011;14472;56.880;16.658;2024-03-25T11:41:49;20.07;;;6.53;;
26906;SDS011;14472;56.880;16.658;2024-03-25T11:44:15;16.03;;;5.33;;
26906;SDS011;14472;56.880;16.658;2024-03-25T11:46:42;14.87;;;4.70;;
26906;SDS011;14472;56.880;16.658;2024-03-25T11:49:12;10.90;;;4.33;;
26906;SDS011;14472;56.880;16.658;2024-03-25T11:51:40;13.33;;;4.83;;
26906;SDS011;14472;56.880;16.658;2024-03-25T11:54:06;19.70;;;5.30;;
26906;SDS011;14472;56.880;16.658;2024-03-25T11:56:35;17.13;;;4.77;;
26906;SDS011;14472;56.880;16.658;2024-03-25T11:59:02;16.33;;;4.70;;
26906;SDS011;14472;56.880;16.658;2024-03-25T12:01:29;12.13;;;4.17;;
26906;SDS011;14472;56.880;16.658;2024-03-25T12:03:55;16.97;;;4.40;;
26906;SDS011;14472;56.880;16.658;2024-03-25T12:06:21;18.20;;;4.37;;
26906;SDS011;14472;56.880;16.658;2024-03-25T12:08:47;13.03;;;4.03;;
26906;SDS011;14472;56.880;16.658;2024-03-25T12:11:33;16.27;;;5.13;;
26906;SDS011;14472;56.880;16.658;2024-03-25T12:14:00;18.97;;;5.93;;
26906;SDS011;14472;56.880;16.658;2024-03-25T12:16:26;16.20;;;5.53;;
26906;SDS011;14472;56.880;16.658;2024-03-25T12:18:52;12.60;;;4.77;;
26906;SDS011;14472;56.880;16.658;2024-03-25T12:21:18;11.17;;;3.93;;
26906;SDS011;14472;56.880;16.658;2024-03-25T12:23:45;14.70;;;4.53;;
26906;SDS011;14472;56.880;16.658;2024-03-25T12:26:12;16.30;;;4.93;;
26906;SDS011;14472;56.880;16.658;2024-03-25T12:28:39;9.47;;;4.07;;
26906;SDS011;14472;56.880;16.658;2024-03-25T12:31:07;14.57;;;5.07;;
26906;SDS011;14472;56.880;16.658;2024-03-25T12:33:40;15.60;;;4.97;;
26906;SDS011;14472;56.880;16.658;2024-03-25T12:36:06;18.67;;;5.80;;
26906;SDS011;14472;56.880;16.658;2024-03-25T12:38:31;16.03;;;5.70;;
26906;SDS011;14472;56.880;16.658;2024-03-25T12:41:07;16.33;;;4.77;;
26906;SDS011;14472;56.880;16.658;2024-03-25T12:43:41;14.37;;;4.53;;
26906;SDS011;14472;56.880;16.658;2024-03-25T12:46:08;12.27;;;4.70;;
26906;SDS011;14472;56.880;16.658;2024-03-25T12:48:35;16.57;;;4.93;;
26906;SDS011;14472;56.880;16.658;2024-03-25T12:51:02;12.73;;;5.03;;
26906;SDS011;14472;56.880;16.658;2024-03-25T12:53:27;14.27;;;4.63;;
26906;SDS011;14472;56.880;16.658;2024-03-25T12:55:53;19.50;;;5.63;;
26906;SDS011;14472;56.880;16.658;2024-03-25T12:58:19;18.87;;;5.50;;
26906;SDS011;14472;56.880;16.658;2024-03-25T13:00:44;13.47;;;4.63;;
26906;SDS011;14472;56.880;16.658;2024-03-25T13:03:10;12.17;;;4.37;;
26906;SDS011;14472;56.880;16.658;2024-03-25T13:05:37;15.87;;;5.53;;
26906;SDS011;14472;56.880;16.658;2024-03-25T13:08:02;16.77;;;5.87;;
26906;SDS011;14472;56.880;16.658;2024-03-25T13:10:28;12.87;;;4.43;;
26906;SDS011;14472;56.880;16.658;2024-03-25T13:12:54;12.53;;;4.60;;
26906;SDS011;14472;56.880;16.658;2024-03-25T13:15:21;14.83;;;4.80;;
26906;SDS011;14472;56.880;16.658;2024-03-25T13:17:46;13.30;;;4.90;;
26906;SDS011;14472;56.880;16.658;2024-03-25T13:20:13;9.97;;;4.10;;
26906;SDS011;14472;56.880;16.658;2024-03-25T13:22:39;15.73;;;4.47;;
26906;SDS011;14472;56.880;16.658;2024-03-25T13:25:05;15.10;;;4.90;;
26906;SDS011;14472;56.880;16.658;2024-03-25T13:27:32;12.13;;;4.83;;
26906;SDS011;14472;56.880;16.658;2024-03-25T13:29:57;14.50;;;4.70;;
26906;SDS011;14472;56.880;16.658;2024-03-25T13:32:23;12.37;;;4.17;;
26906;SDS011;14472;56.880;16.658;2024-03-25T13:34:49;9.00;;;4.10;;
26906;SDS011;14472;56.880;16.658;2024-03-25T13:37:15;14.90;;;3.60;;
26906;SDS011;14472;56.880;16.658;2024-03-25T13:39:41;16.07;;;4.60;;
26906;SDS011;14472;56.880;16.658;2024-03-25T13:42:07;12.67;;;4.77;;
26906;SDS011;14472;56.880;16.658;2024-03-25T13:44:32;10.03;;;4.20;;
26906;SDS011;14472;56.880;16.658;2024-03-25T13:46:58;13.23;;;4.57;;
26906;SDS011;14472;56.880;16.658;2024-03-25T13:49:24;14.87;;;5.27;;
26906;SDS011;14472;56.880;16.658;2024-03-25T13:51:57;15.33;;;4.67;;
26906;SDS011;14472;56.880;16.658;2024-03-25T13:54:29;11.17;;;5.27;;
26906;SDS011;14472;56.880;16.658;2024-03-25T13:56:58;12.20;;;4.63;;
26906;SDS011;14472;56.880;16.658;2024-03-25T13:59:24;14.27;;;4.60;;
26906;SDS011;14472;56.880;16.658;2024-03-25T14:01:50;11.83;;;5.03;;
26906;SDS011;14472;56.880;16.658;2024-03-25T14:04:19;10.87;;;4.17;;
26906;SDS011;14472;56.880;16.658;2024-03-25T14:06:45;9.33;;;4.00;;
26906;SDS011;14472;56.880;16.658;2024-03-25T14:09:22;7.47;;;3.93;;
26906;SDS011;14472;56.880;16.658;2024-03-25T14:11:49;9.93;;;4.40;;
26906;SDS011;14472;56.880;16.658;2024-03-25T14:14:15;10.47;;;4.33;;
26906;SDS011;14472;56.880;16.658;2024-03-25T14:16:41;8.50;;;3.73;;